Terminal Aerodrome Forecast
Issued by NWS

Home | Current Version | Previous Version | Text Only | Print | Product List | Glossary On
Versions: 1 2 3 4 5 6 7 8 9 10 11 12 13 14 15 16 17 18 19
375
FTUS43 KILX 061139
TAFDEC
TAF
KDEC 061139Z 0612/0712 02006KT 4SM BR OVC015
     FM061300 33006KT 3SM BR OVC006
     FM061700 30012KT 5SM BR OVC007
     FM062300 28010KT P6SM BKN200
     FM070400 26004KT P6SM SKC=

USA.gov is the U.S. government's official web portal to all federal, state and local government web resources and services.